This is the latest recevied weather packets stored in our database for station/object SP3WRO-2. If no packets are shown the sender has not sent any weather packets the latest 10 day(s).
| Time | Temp. | Humidity | Pressure | Rain* | Wind** | Luminosity | Snow |
|---|---|---|---|---|---|---|---|
| 1788033530 | 15.56° C | 91% | 1009.6 hPa | 1.78 mm | - | - | - |
| 1788032628 | 16.67° C | 81% | 1009.6 hPa | 1.78 mm | - | - | - |
| 1788031728 | 16.11° C | 86% | 1009.6 hPa | 1.78 mm | - | - | - |
| 1788030827 | 15.56° C | 89% | 1009.5 hPa | 1.78 mm | - | - | - |
| 1788029926 | 15.56° C | 90% | 1009.4 hPa | 1.78 mm | - | - | - |
| 1788029025 | 15.56° C | 87% | 1009.3 hPa | 1.78 mm | - | - | - |
| 1788028124 | 16.11° C | 88% | 1009.2 hPa | 1.78 mm | - | - | - |
| 1788027223 | 16.67° C | 86% | 1009.1 hPa | 1.78 mm | - | - | - |
| 1788026322 | 18.33° C | 74% | 1009 hPa | 1.78 mm | - | 1 W/m² | - |
| 1788025421 | 18.89° C | 73% | 1008.9 hPa | 1.78 mm | - | 6 W/m² | - |
| 1788024520 | 20.56° C | 65% | 1008.9 hPa | 1.78 mm | - | 13 W/m² | - |
| 1788023619 | 21.11° C | 63% | 1008.8 hPa | 1.78 mm | - | 21 W/m² | - |
| 1788022718 | 21.67° C | 62% | 1008.8 hPa | 1.78 mm | - | 28 W/m² | - |
| 1788021817 | 22.22° C | 58% | 1008.8 hPa | 1.78 mm | - | 35 W/m² | - |
| 1788020917 | 22.22° C | 60% | 1008.8 hPa | 1.78 mm | - | 41 W/m² | - |
| 1788020016 | 22.78° C | 59% | 1008.8 hPa | 1.78 mm | - | 64 W/m² | - |
| 1788019115 | 22.78° C | 59% | 1008.6 hPa | 1.78 mm | - | 52 W/m² | - |
| 1788018214 | 22.78° C | 60% | 1008.7 hPa | 1.78 mm | - | 92 W/m² | - |
| 1788017314 | 22.22° C | 61% | 1008.7 hPa | 1.78 mm | - | 126 W/m² | - |
| 1788016413 | 22.78° C | 55% | 1008.6 hPa | 1.78 mm | - | 73 W/m² | - |
| 1788015512 | 23.33° C | 57% | 1008.6 hPa | 1.78 mm | - | 126 W/m² | - |
| 1788014611 | 23.33° C | 56% | 1008.7 hPa | 1.78 mm | - | 110 W/m² | - |
| 1788013710 | 23.33° C | 57% | 1008.7 hPa | 1.78 mm | - | 91 W/m² | - |
| 1788012809 | 23.89° C | 54% | 1008.6 hPa | 1.78 mm | - | 414 W/m² | - |
| 1788011908 | 23.33° C | 57% | 1008.6 hPa | 1.78 mm | - | 435 W/m² | - |
* Rain latest 24 hours (hover to see other rain measurements)
** Current wind speed in m/s (hover to see current wind gust speed)